Airfield :
LOGIN :

Register | Disclaimer

   EN    FR    IT 

 










Legend :    VFR   Marginal VFR   IFR   Intensive IFR   Very Intensive IFR
Visi :
Ceiling :
>= 8 km
>= 3000ft
5 to 8 km
1000 to 3000 ft
1500m to 5 km
500 to 1000 ft
800 to 1500m
200 to 500 ft
< 800m
< 200 ft
Symbols :   Thunderstorms  Fog  Heavy snow  Heavy precipitations  Wind > 20 kt
SIGMETs :     Misc.  Thunderstorms  Icing  Turbulence  Mountain Waves  Volcanic Ashes






- Airport Elevation : 44 ft
- IATA code : POR


EFPO - Pori

CURRENT METAR :
  • 010520Z AUTO VRB02KT 0400 R12/0500 FG VV001 07/07 Q1021

EXPIRED METARs :
  • 010450Z AUTO 08003KT 040V110 0700 R12/0800D FG VV001 07/07 Q1021
  • 010420Z AUTO 08004KT 050V110 0600 R12/0700N FG VV001 08/08 Q1021
  • 010350Z AUTO 14001KT 0250 R30/0400N FG VV001 07/07 Q1021
  • 010320Z AUTO 14001KT 0300 R30/0550 FG VV001 07/07 Q1021
  • 010250Z AUTO 15001KT 0250 R30/0450 FG VV001 07/07 Q1021

TAF TAF EFPO
Valid from the 01 at 03:00 until the 01 at 12:00 UTC


010233Z 0103/0112 14003KT 0300 FG VV001
BECMG 0106/0108 5000 NSW BKN003
BECMG 0108/0110 9999 SCT007



MET'MAP, your aeronautical weather chart ! - Copyright ORBIFLY December 2007 - Disclaimer

ORBIFLY MET'MAP TEAM :

Programming & Development : Alexandra Zaïnal
Concept & original design : Baudouin d'Aumeries
Assistance for programming : Marc-Olivier Méhu
Technical & hardware support : Manuel Goepfert

Contact : metmap@orbifly.com




SOURCES & CREDITS :

   NOAA